createdAt,value
2018-12-22T00:09:33.005Z,13.20
2018-12-22T00:24:19.532Z,13.10
2018-12-22T00:45:10.868Z,13.30
2018-12-22T01:09:15.328Z,12.90
2018-12-22T01:14:54.922Z,12.90
2018-12-22T01:44:51.918Z,13.10
2018-12-22T01:47:25.914Z,12.90
2018-12-22T01:50:00.803Z,12.90
2018-12-22T01:52:36.070Z,12.70
2018-12-22T01:55:22.459Z,12.80
2018-12-22T02:07:07.429Z,13.30
2018-12-22T02:09:47.085Z,13.10
2018-12-22T02:12:19.189Z,13.30
2018-12-22T02:14:51.195Z,13.10
2018-12-22T02:17:29.382Z,13.20
2018-12-22T02:19:57.740Z,13.10
2018-12-22T02:22:26.070Z,12.90
2018-12-22T02:24:54.362Z,12.60
2018-12-22T02:27:22.583Z,12.90
2018-12-22T02:29:50.883Z,13.00
2018-12-22T02:32:19.148Z,12.90
2018-12-22T02:34:47.420Z,12.90
2018-12-22T02:37:15.662Z,12.90
2018-12-22T02:39:44.332Z,12.70
2018-12-22T02:42:12.549Z,12.80
2018-12-22T02:44:40.822Z,12.90
2018-12-22T02:47:09.054Z,13.00
2018-12-22T02:49:37.310Z,12.80
2018-12-22T02:52:05.630Z,12.80
2018-12-22T02:54:33.844Z,12.80
2018-12-22T02:57:02.273Z,12.50
2018-12-22T02:59:30.677Z,12.30
2018-12-22T03:01:58.971Z,12.10
2018-12-22T03:04:28.104Z,12.60
2018-12-22T03:06:56.451Z,12.60
2018-12-22T03:09:24.914Z,12.60
2018-12-22T03:11:53.507Z,12.40
2018-12-22T03:14:21.749Z,12.60
2018-12-22T03:16:50.033Z,12.50
2018-12-22T03:19:18.289Z,12.40
2018-12-22T03:21:46.534Z,12.40
2018-12-22T03:24:14.845Z,12.60
2018-12-22T03:26:43.085Z,12.50
2018-12-22T03:29:15.463Z,12.60
2018-12-22T03:31:41.622Z,12.50
2018-12-22T03:34:09.944Z,12.50
2018-12-22T03:36:38.320Z,12.50
2018-12-22T03:39:08.110Z,12.50
2018-12-22T03:41:36.490Z,12.40
2018-12-22T03:44:04.913Z,12.30
2018-12-22T03:46:33.375Z,12.40
2018-12-22T03:49:01.613Z,12.60
2018-12-22T03:51:29.970Z,12.50
2018-12-22T03:53:58.371Z,12.50
2018-12-22T03:56:26.616Z,12.20
2018-12-22T03:58:54.835Z,12.30
2018-12-22T04:01:23.071Z,12.30
2018-12-22T04:03:51.285Z,12.30
2018-12-22T04:06:19.496Z,12.30
2018-12-22T04:08:47.738Z,12.30
2018-12-22T04:11:15.950Z,12.00
2018-12-22T04:13:44.185Z,11.90
2018-12-22T04:16:12.485Z,11.60
2018-12-22T04:18:40.709Z,11.60
2018-12-22T04:21:08.970Z,11.70
2018-12-22T04:23:37.208Z,11.70
2018-12-22T04:26:05.473Z,11.60
2018-12-22T04:28:33.716Z,11.50
2018-12-22T04:31:02.809Z,11.40
2018-12-22T04:33:31.095Z,11.30
2018-12-22T04:35:59.376Z,11.80
2018-12-22T04:38:27.620Z,11.70
2018-12-22T04:40:55.850Z,11.40
2018-12-22T04:43:24.162Z,11.40
2018-12-22T04:45:52.394Z,11.40
2018-12-22T04:48:20.628Z,11.30
2018-12-22T04:50:48.907Z,11.60
2018-12-22T04:53:17.283Z,11.70
2018-12-22T04:55:45.692Z,11.50
2018-12-22T04:58:13.937Z,11.60
2018-12-22T05:00:42.258Z,11.40
2018-12-22T05:03:10.485Z,11.30
2018-12-22T05:05:38.799Z,11.30
2018-12-22T05:08:07.093Z,11.30
2018-12-22T05:10:35.410Z,11.40
2018-12-22T05:13:03.684Z,11.50
2018-12-22T05:15:31.968Z,11.60
2018-12-22T05:18:00.196Z,11.70
2018-12-22T05:20:28.441Z,11.70
2018-12-22T05:22:56.717Z,11.90
2018-12-22T05:25:24.961Z,12.00
2018-12-22T05:27:53.192Z,11.80
2018-12-22T05:30:21.669Z,11.70
2018-12-22T05:32:49.968Z,11.90
2018-12-22T05:35:18.221Z,11.90
2018-12-22T05:37:48.031Z,11.80
2018-12-22T05:40:16.281Z,12.00
2018-12-22T05:42:44.933Z,11.90
2018-12-22T05:45:13.369Z,11.90
2018-12-22T05:47:41.692Z,12.10
2018-12-22T05:50:10.258Z,11.90
2018-12-22T05:52:38.503Z,11.90
2018-12-22T05:55:06.907Z,12.10
2018-12-22T05:57:35.325Z,12.10
2018-12-22T06:00:03.992Z,12.30
2018-12-22T06:02:32.257Z,12.10
2018-12-22T06:05:00.516Z,12.00
2018-12-22T06:07:28.759Z,11.80
2018-12-22T06:09:56.987Z,11.80
2018-12-22T06:12:25.220Z,11.90
2018-12-22T06:14:53.454Z,12.00
2018-12-22T06:17:21.680Z,11.90
2018-12-22T06:19:49.912Z,12.10
2018-12-22T06:22:18.148Z,12.20
2018-12-22T06:24:46.558Z,12.30
2018-12-22T06:27:15.140Z,12.30
2018-12-22T06:29:43.540Z,12.30
2018-12-22T06:32:11.894Z,12.30
2018-12-22T06:34:40.092Z,12.30
2018-12-22T06:37:08.362Z,12.10
2018-12-22T06:39:36.750Z,12.00
2018-12-22T06:42:05.093Z,11.80
2018-12-22T06:44:33.364Z,11.70
2018-12-22T06:47:02.404Z,11.90
2018-12-22T06:49:30.913Z,11.80
2018-12-22T06:51:59.164Z,11.70
2018-12-22T06:54:27.397Z,11.70
2018-12-22T06:56:55.682Z,11.80
2018-12-22T06:59:23.999Z,11.80
2018-12-22T07:01:52.367Z,11.80
2018-12-22T07:04:20.932Z,11.80
2018-12-22T07:06:49.145Z,12.00
2018-12-22T07:09:18.088Z,12.20
2018-12-22T07:11:46.355Z,12.30
2018-12-22T07:14:14.581Z,12.10
2018-12-22T07:16:42.892Z,12.20
2018-12-22T07:19:11.127Z,12.30
2018-12-22T07:21:39.516Z,12.40
2018-12-22T07:24:07.925Z,12.30
2018-12-22T07:26:36.156Z,12.30
2018-12-22T07:29:04.413Z,12.30
2018-12-22T07:31:32.650Z,12.20
2018-12-22T07:34:01.664Z,12.20
2018-12-22T07:36:29.923Z,12.00
2018-12-22T07:38:58.201Z,12.00
2018-12-22T07:41:26.451Z,11.80
2018-12-22T07:43:54.674Z,11.90
2018-12-22T07:46:22.940Z,11.80
2018-12-22T07:48:51.196Z,11.80
2018-12-22T07:51:19.469Z,11.70
2018-12-22T07:53:47.689Z,11.80
2018-12-22T07:56:16.566Z,12.00
2018-12-22T07:58:44.809Z,11.90
2018-12-22T08:01:19.834Z,11.70
2018-12-22T08:03:48.169Z,11.70
2018-12-22T08:06:16.412Z,11.80
2018-12-22T08:08:44.653Z,11.80
2018-12-22T08:11:13.016Z,11.70
2018-12-22T08:13:41.270Z,11.90
2018-12-22T08:16:09.526Z,11.90
2018-12-22T08:18:37.777Z,11.80
2018-12-22T08:21:05.990Z,11.90
2018-12-22T08:23:34.241Z,12.00
2018-12-22T08:26:02.437Z,12.00
2018-12-22T08:28:33.052Z,11.80
2018-12-22T08:31:01.692Z,11.70
2018-12-22T08:33:30.415Z,11.50
2018-12-22T08:35:58.920Z,11.70
2018-12-22T08:38:27.170Z,11.90
2018-12-22T08:40:55.389Z,12.00
2018-12-22T08:43:27.273Z,12.00
2018-12-22T08:45:55.645Z,11.90
2018-12-22T08:48:23.875Z,11.90
2018-12-22T08:50:53.560Z,12.00
2018-12-22T08:53:21.852Z,12.00
2018-12-22T08:55:50.423Z,11.80
2018-12-22T08:58:18.891Z,11.70
2018-12-22T09:00:52.091Z,11.50
2018-12-22T09:03:18.236Z,11.70
2018-12-22T09:05:47.043Z,11.70
2018-12-22T09:08:15.390Z,11.80
2018-12-22T09:10:43.720Z,12.00
2018-12-22T09:13:11.973Z,11.80
2018-12-22T09:15:40.275Z,11.80
2018-12-22T09:18:08.649Z,12.10
2018-12-22T09:20:36.910Z,11.70
2018-12-22T09:26:11.163Z,12.00
2018-12-22T09:28:39.659Z,12.40
2018-12-22T09:31:07.881Z,12.30
2018-12-22T09:33:36.189Z,12.20
2018-12-22T09:36:04.537Z,12.10
2018-12-22T09:38:32.784Z,11.90
2018-12-22T09:41:05.998Z,12.00
2018-12-22T09:43:52.719Z,11.90
2018-12-22T09:53:39.495Z,11.80
2018-12-22T09:57:44.190Z,11.90
2018-12-22T10:04:28.847Z,12.10
2018-12-22T10:07:02.341Z,12.10
2018-12-22T10:09:32.749Z,12.50
2018-12-22T10:12:02.081Z,12.60
2018-12-22T10:15:07.129Z,12.80
2018-12-22T10:17:35.502Z,13.10
2018-12-22T10:20:04.315Z,12.80
2018-12-22T10:22:32.582Z,13.00
2018-12-22T10:25:01.660Z,13.20
2018-12-22T10:27:29.910Z,13.20
2018-12-22T10:29:58.157Z,12.80
2018-12-22T10:32:26.415Z,12.50
2018-12-22T10:34:54.668Z,12.50
2018-12-22T10:37:23.539Z,12.30
2018-12-22T10:39:51.788Z,12.60
2018-12-22T10:42:20.033Z,12.40
2018-12-22T10:44:48.422Z,12.50
2018-12-22T10:47:16.658Z,12.80
2018-12-22T10:49:44.876Z,12.50
2018-12-22T10:52:13.142Z,12.30
2018-12-22T10:54:41.615Z,12.30
2018-12-22T10:57:09.856Z,12.10
2018-12-22T10:59:38.061Z,12.00
2018-12-22T11:02:06.260Z,12.30
2018-12-22T11:04:34.602Z,12.50
2018-12-22T11:07:02.864Z,12.70
2018-12-22T11:09:31.186Z,12.50
2018-12-22T11:11:59.439Z,12.50
2018-12-22T11:14:27.676Z,12.70
2018-12-22T11:16:55.881Z,12.30
2018-12-22T11:19:24.116Z,12.40
2018-12-22T11:21:52.385Z,12.40
2018-12-22T11:24:20.649Z,12.40
2018-12-22T11:26:48.884Z,12.00
2018-12-22T11:29:17.225Z,11.90
2018-12-22T11:31:45.534Z,12.10
2018-12-22T11:34:13.785Z,12.20
2018-12-22T11:36:42.057Z,12.60
2018-12-22T11:39:10.401Z,12.80
2018-12-22T11:41:38.704Z,13.00
2018-12-22T11:44:07.178Z,13.00
2018-12-22T11:46:37.249Z,13.30
2018-12-22T11:49:17.132Z,13.50
2018-12-22T11:51:45.488Z,13.40
2018-12-22T11:54:13.941Z,13.10
2018-12-22T11:56:42.298Z,13.10
2018-12-22T11:59:10.589Z,13.20
2018-12-22T12:01:43.515Z,13.10
2018-12-22T12:04:09.147Z,12.70
2018-12-22T12:06:37.425Z,12.80
2018-12-22T12:09:06.798Z,12.80
2018-12-22T12:11:35.128Z,12.80
2018-12-22T12:14:03.459Z,12.80
2018-12-22T12:16:40.089Z,12.80
2018-12-22T12:19:22.220Z,12.90
2018-12-22T12:21:50.523Z,13.10
2018-12-22T12:24:18.839Z,13.10
2018-12-22T12:26:47.149Z,13.00
2018-12-22T12:29:15.569Z,13.10
2018-12-22T12:31:51.885Z,13.30
2018-12-22T12:34:14.125Z,13.50
2018-12-22T12:36:42.382Z,13.20
2018-12-22T12:39:12.676Z,13.30
2018-12-22T12:41:40.961Z,12.90
2018-12-22T12:44:09.296Z,12.90
2018-12-22T12:46:48.261Z,13.10
2018-12-22T12:49:17.154Z,13.20
2018-12-22T12:51:45.627Z,13.40
2018-12-22T12:54:14.069Z,12.70
2018-12-22T12:56:47.864Z,12.50
2018-12-22T12:59:16.410Z,12.80
2018-12-22T13:01:45.475Z,12.90
2018-12-22T13:04:13.812Z,13.20
2018-12-22T13:06:42.936Z,13.30
2018-12-22T13:09:11.323Z,13.30
2018-12-22T13:11:40.196Z,13.30
2018-12-22T13:14:17.235Z,13.20
2018-12-22T13:16:46.476Z,13.10
2018-12-22T13:19:16.177Z,13.00
2018-12-22T13:21:48.247Z,13.00
2018-12-22T13:24:18.526Z,13.40
2018-12-22T13:26:47.282Z,13.70
2018-12-22T13:29:15.740Z,13.70
2018-12-22T13:31:45.046Z,13.80
2018-12-22T13:34:13.470Z,13.90
2018-12-22T13:36:41.964Z,14.30
2018-12-22T13:39:17.111Z,14.10
2018-12-22T13:41:45.436Z,14.10
2018-12-22T13:44:14.125Z,14.00
2018-12-22T13:46:42.865Z,14.20
2018-12-22T13:49:12.176Z,14.00
2018-12-22T13:51:43.057Z,13.90
2018-12-22T13:54:12.123Z,13.60
2018-12-22T13:56:40.679Z,13.70
2018-12-22T13:59:09.413Z,13.50
2018-12-22T14:01:41.490Z,13.70
2018-12-22T14:04:09.868Z,13.50
2018-12-22T14:06:43.500Z,13.60
2018-12-22T14:09:12.368Z,13.30
2018-12-22T14:11:41.668Z,13.70
2018-12-22T14:14:12.987Z,13.80
2018-12-22T14:16:48.367Z,13.90
2018-12-22T14:19:16.954Z,13.80
2018-12-22T14:21:45.322Z,13.80
2018-12-22T14:24:47.548Z,13.90
2018-12-22T14:27:15.827Z,13.90
2018-12-22T14:29:44.169Z,13.80
2018-12-22T14:32:12.541Z,13.70
2018-12-22T14:37:40.443Z,13.60
2018-12-22T14:40:11.142Z,13.40
2018-12-22T14:48:30.429Z,13.00
2018-12-22T14:51:18.139Z,13.00
2018-12-22T14:53:46.519Z,13.00
2018-12-22T14:56:15.409Z,13.00
2018-12-22T14:59:03.614Z,12.90
2018-12-22T15:01:44.566Z,13.10
2018-12-22T15:04:13.157Z,13.30
2018-12-22T15:06:48.592Z,13.40
2018-12-22T15:09:17.869Z,13.30
2018-12-22T15:11:55.655Z,13.30
2018-12-22T15:14:28.033Z,13.50
2018-12-22T15:16:59.552Z,13.40
2018-12-22T15:19:28.564Z,13.50
2018-12-22T15:22:01.019Z,13.30
2018-12-22T15:24:29.784Z,13.00
2018-12-22T15:27:03.100Z,13.00
2018-12-22T15:29:31.540Z,12.90
2018-12-22T15:32:04.005Z,13.00
2018-12-22T15:34:33.305Z,13.10
2018-12-22T15:37:01.938Z,13.10
2018-12-22T15:39:30.552Z,13.00
2018-12-22T15:41:59.010Z,12.90
2018-12-22T15:47:20.050Z,12.80
2018-12-22T15:49:48.468Z,13.00
2018-12-22T15:52:25.350Z,12.80
2018-12-22T15:54:53.873Z,12.90
2018-12-22T15:57:22.335Z,13.00
2018-12-22T15:59:50.903Z,12.70
2018-12-22T16:02:19.402Z,12.70
2018-12-22T16:04:48.319Z,12.80
2018-12-22T16:07:16.827Z,12.80
2018-12-22T16:09:45.796Z,12.80
2018-12-22T16:12:14.245Z,12.60
2018-12-22T16:14:42.738Z,12.70
2018-12-22T16:17:11.368Z,12.50
2018-12-22T16:19:39.755Z,12.60
2018-12-22T16:22:08.249Z,12.70
2018-12-22T16:24:36.677Z,12.50
2018-12-22T16:27:05.037Z,12.50
2018-12-22T16:29:47.009Z,12.30
2018-12-22T16:32:15.550Z,12.00
2018-12-22T16:34:53.996Z,12.30
2018-12-22T16:37:22.246Z,12.30
2018-12-22T16:39:50.593Z,12.40
2018-12-22T16:42:18.925Z,12.20
2018-12-22T16:44:47.388Z,11.90
2018-12-22T16:47:15.873Z,12.20
2018-12-22T16:49:44.144Z,12.10
2018-12-22T16:52:12.728Z,12.30
2018-12-22T16:54:41.026Z,12.30
2018-12-22T16:57:09.443Z,12.10
2018-12-22T16:59:37.745Z,12.20
2018-12-22T17:03:12.843Z,12.40
2018-12-22T17:05:41.215Z,12.10
2018-12-22T17:08:09.513Z,12.10
2018-12-22T17:10:42.223Z,12.10
2018-12-22T17:13:11.664Z,12.00
2018-12-22T17:15:43.669Z,12.20
2018-12-22T17:18:12.012Z,12.30
2018-12-22T17:20:40.480Z,12.30
2018-12-22T17:24:26.683Z,12.30
2018-12-22T17:26:55.457Z,12.40
2018-12-22T17:29:28.170Z,12.60
2018-12-22T17:31:58.727Z,12.30
2018-12-22T17:37:23.715Z,12.40
2018-12-22T17:39:53.593Z,12.30
2018-12-22T17:42:22.097Z,12.50
2018-12-22T17:44:50.500Z,12.50
2018-12-22T17:47:19.106Z,12.40
2018-12-22T17:49:47.506Z,12.30
2018-12-22T17:52:15.897Z,12.40
2018-12-22T17:54:44.193Z,12.30
2018-12-22T17:57:12.457Z,12.00
2018-12-22T18:00:03.291Z,11.90
2018-12-22T18:02:31.593Z,11.90
2018-12-22T18:04:59.854Z,11.90
2018-12-22T18:07:28.205Z,11.90
2018-12-22T18:09:56.480Z,12.00
2018-12-22T18:12:24.905Z,12.00
2018-12-22T18:14:53.312Z,11.80
2018-12-22T18:17:21.829Z,12.00
2018-12-22T18:19:50.227Z,11.90
2018-12-22T18:22:19.184Z,12.00
2018-12-22T18:24:48.624Z,12.10
2018-12-22T18:27:16.998Z,12.20
2018-12-22T18:29:45.558Z,12.10
2018-12-22T18:32:15.263Z,11.90
2018-12-22T18:34:43.936Z,12.10
2018-12-22T18:37:12.208Z,12.20
2018-12-22T18:39:40.505Z,11.90
2018-12-22T18:42:09.832Z,12.00
2018-12-22T18:44:40.066Z,12.00
2018-12-22T18:47:09.478Z,11.90
2018-12-22T18:49:37.904Z,11.90
2018-12-22T18:52:06.467Z,11.80
2018-12-22T18:54:34.974Z,11.80
2018-12-22T18:57:03.472Z,11.70
2018-12-22T18:59:32.265Z,11.60
2018-12-22T19:02:00.791Z,11.70
2018-12-22T19:04:29.094Z,11.50
2018-12-22T19:09:34.229Z,11.60
2018-12-22T19:12:08.458Z,11.70
2018-12-22T19:14:37.156Z,11.80
2018-12-22T19:17:05.504Z,11.50
2018-12-22T19:19:33.777Z,11.40
2018-12-22T19:22:02.078Z,11.50
2018-12-22T19:24:30.366Z,11.50
2018-12-22T19:26:58.736Z,11.50
2018-12-22T19:29:27.096Z,11.40
2018-12-22T19:31:55.328Z,11.00
2018-12-22T19:34:23.676Z,10.90
2018-12-22T19:36:51.917Z,11.10
2018-12-22T19:39:20.642Z,11.00
2018-12-22T19:41:49.029Z,10.90
2018-12-22T19:44:17.369Z,10.80
2018-12-22T19:46:45.976Z,10.90
2018-12-22T19:49:14.273Z,11.00
2018-12-22T19:51:42.856Z,10.90
2018-12-22T19:54:11.377Z,11.00
2018-12-22T19:56:40.295Z,11.00
2018-12-22T19:59:08.831Z,10.80
2018-12-22T20:01:37.417Z,10.60
2018-12-22T20:04:06.011Z,10.60
2018-12-22T20:06:34.475Z,10.80
2018-12-22T20:09:04.136Z,10.90
2018-12-22T20:11:35.528Z,10.80
2018-12-22T20:14:05.545Z,10.80
2018-12-22T20:16:35.087Z,11.00
2018-12-22T20:19:04.553Z,11.00
2018-12-22T20:21:33.621Z,10.90
2018-12-22T20:24:03.372Z,10.80
2018-12-22T20:26:31.942Z,10.70
2018-12-22T20:29:00.794Z,10.60
2018-12-22T20:31:29.277Z,10.60
2018-12-22T20:33:57.781Z,10.50
2018-12-22T20:36:26.417Z,10.70
2018-12-22T20:38:55.938Z,10.90
2018-12-22T20:41:24.237Z,11.00
2018-12-22T20:43:52.517Z,10.90
2018-12-22T20:46:20.843Z,10.70
2018-12-22T20:48:49.274Z,10.90
2018-12-22T20:51:18.270Z,11.10
2018-12-22T20:53:46.618Z,11.40
2018-12-22T20:56:15.125Z,11.30
2018-12-22T20:58:43.638Z,11.00
2018-12-22T21:01:12.063Z,10.70
2018-12-22T21:03:41.315Z,10.80
2018-12-22T21:06:15.249Z,10.80
2018-12-22T21:08:44.085Z,10.80
2018-12-22T21:11:13.204Z,10.60
2018-12-22T21:13:42.080Z,10.70
2018-12-22T21:16:10.986Z,10.90
2018-12-22T21:18:40.443Z,11.10
2018-12-22T21:21:09.535Z,10.90
2018-12-22T21:23:37.941Z,10.90
2018-12-22T21:26:06.524Z,11.00
2018-12-22T21:28:35.106Z,10.80
2018-12-22T21:31:04.520Z,10.80
2018-12-22T21:33:32.890Z,10.90
2018-12-22T21:36:01.642Z,11.10
2018-12-22T21:38:31.909Z,11.00
2018-12-22T21:41:01.326Z,11.00
2018-12-22T21:43:30.288Z,10.80
2018-12-22T21:46:00.355Z,10.70
2018-12-22T21:48:29.525Z,10.90
2018-12-22T21:50:58.673Z,11.00
2018-12-22T21:53:27.110Z,11.00
2018-12-22T21:55:55.502Z,10.90
2018-12-22T21:58:24.114Z,11.00
2018-12-22T22:00:52.624Z,10.70
2018-12-22T22:03:20.998Z,10.80
2018-12-22T22:05:49.460Z,10.70
2018-12-22T22:08:17.865Z,10.50
2018-12-22T22:10:48.527Z,10.60
2018-12-22T22:13:17.108Z,10.50
2018-12-22T22:15:45.701Z,10.70
2018-12-22T22:18:14.070Z,10.80
2018-12-22T22:20:42.362Z,10.80
2018-12-22T22:23:18.677Z,10.70
2018-12-22T22:25:41.119Z,10.80
2018-12-22T22:28:09.792Z,11.00
2018-12-22T22:30:38.161Z,11.10
2018-12-22T22:33:06.646Z,11.10
2018-12-22T22:35:35.609Z,11.10
2018-12-22T22:38:04.187Z,11.10
2018-12-22T22:40:32.541Z,11.00
2018-12-22T22:43:00.996Z,11.10
2018-12-22T22:45:29.423Z,11.20
2018-12-22T22:47:57.817Z,11.10
2018-12-22T22:50:26.184Z,11.30
2018-12-22T22:52:54.600Z,10.90
2018-12-22T22:55:22.894Z,10.90
2018-12-22T22:57:51.297Z,10.90
2018-12-22T23:00:30.072Z,11.00
2018-12-22T23:02:58.459Z,11.10
2018-12-22T23:05:26.905Z,11.00
2018-12-22T23:07:55.215Z,11.00
2018-12-22T23:10:23.478Z,11.00
2018-12-22T23:12:51.869Z,11.20
2018-12-22T23:15:20.362Z,11.00
2018-12-22T23:17:48.648Z,11.10
2018-12-22T23:20:17.026Z,11.30
2018-12-22T23:22:45.317Z,11.20
2018-12-22T23:25:13.661Z,11.00
2018-12-22T23:27:41.949Z,10.90
2018-12-22T23:30:10.394Z,10.90
2018-12-22T23:32:38.739Z,10.90
2018-12-22T23:35:09.228Z,11.10
2018-12-22T23:37:37.478Z,11.00
2018-12-22T23:40:05.901Z,11.20
2018-12-22T23:42:34.136Z,11.40
2018-12-22T23:45:02.497Z,11.20
2018-12-22T23:47:30.742Z,11.00
2018-12-22T23:49:59.339Z,11.10
2018-12-22T23:52:27.817Z,11.00
2018-12-22T23:54:56.599Z,11.20
2018-12-22T23:57:25.413Z,11.10
2018-12-22T23:59:53.954Z,10.80
